Time;durP1;ratioP1;P1;durP2;ratioP2;P2;SDS_P1;SDS_P2;PMS_P1;PMS_P2;Temp;Humidity;BMP_temperature;BMP_pressure;BME280_temperature;BME280_humidity;BME280_pressure;Samples;Min_cycle;Max_cycle;Signal;HPM_P1;HPM_P2
2024/01/11 00:00:16;;;;;;;;;;;;;;;-5.39;100.00;103179.66;5034187;28;20436;-67
2024/01/11 00:02:41;;;;;;;;;;;;;;;-5.45;100.00;103183.00;5033871;28;20378;-67
2024/01/11 00:05:06;;;;;;;;;;;;;;;-5.49;100.00;103189.91;5037237;28;19952;-67
2024/01/11 00:07:31;;;;;;;;;;;;;;;-5.59;100.00;103195.72;5028688;28;20354;-67
2024/01/11 00:09:57;;;;;;;;;;;;;;;-5.63;100.00;103188.63;5033848;28;20011;-66
2024/01/11 00:12:22;;;;;;;;;;;;;;;-5.67;100.00;103186.78;5032045;28;19933;-67
2024/01/11 00:14:47;;;;;;;;;;;;;;;-5.73;100.00;103190.09;5030019;28;19947;-67
2024/01/11 00:17:12;;;;;;;;;;;;;;;-5.78;100.00;103186.47;5029602;28;20041;-67
2024/01/11 00:19:38;;;;;;;;;;;;;;;-5.75;100.00;103187.47;5031353;28;20466;-67
2024/01/11 00:22:03;;;;;;;;;;;;;;;-5.74;100.00;103185.72;5034696;28;20380;-67
2024/01/11 00:24:28;;;;;;;;;;;;;;;-5.73;100.00;103198.88;5031996;28;20272;-67
2024/01/11 00:26:53;;;;;;;;;;;;;;;-5.73;100.00;103190.09;5030429;28;19925;-67
2024/01/11 00:29:19;;;;;;;;;;;;;;;-5.79;100.00;103198.69;5028161;28;20264;-67
2024/01/11 00:31:44;;;;;;;;;;;;;;;-5.80;100.00;103193.38;5029565;28;20394;-67
2024/01/11 00:34:09;;;;;;;;;;;;;;;-5.84;100.00;103187.19;5029637;28;19920;-67
2024/01/11 00:36:36;;;;;;;;;;;;;;;-5.85;100.00;103185.41;4998492;22;19961;-67
2024/01/11 00:39:01;;;;;;;;;;;;;;;-5.80;100.00;103190.78;4982696;28;19925;-66
2024/01/11 00:41:26;;;;;;;;;;;;;;;-5.76;100.00;103187.41;4998049;28;20397;-67
2024/01/11 00:43:52;;;;;;;;;;;;;;;-5.76;100.00;103183.06;4986051;28;20406;-67
2024/01/11 00:46:17;;;;;;;;;;;;;;;-5.76;100.00;103190.94;4979548;28;19957;-67
2024/01/11 00:48:42;;;;;;;;;;;;;;;-5.75;100.00;103186.56;4977053;28;19926;-67
2024/01/11 00:51:07;;;;;;;;;;;;;;;-5.70;100.00;103184.09;4996216;28;19926;-67
2024/01/11 00:53:33;;;;;;;;;;;;;;;-5.67;100.00;103184.16;4980846;28;19958;-67
2024/01/11 00:55:58;;;;;;;;;;;;;;;-5.65;100.00;103179.84;4994085;28;19928;-66
2024/01/11 00:58:23;;;;;;;;;;;;;;;-5.61;100.00;103182.63;4989293;28;20356;-66
2024/01/11 01:00:49;;;;;;;;;;;;;;;-5.65;100.00;103198.16;4981831;28;19917;-67
2024/01/11 01:03:15;;;;;;;;;;;;;;;-5.68;100.00;103193.75;4985340;28;19926;-66
2024/01/11 01:05:41;;;;;;;;;;;;;;;-5.65;100.00;103201.69;4980542;28;19922;-67
2024/01/11 01:08:06;;;;;;;;;;;;;;;-5.67;100.00;103195.53;5000117;28;19964;-67
2024/01/11 01:10:31;;;;;;;;;;;;;;;-5.66;100.00;103193.78;4980529;28;20026;-67
2024/01/11 01:12:56;;;;;;;;;;;;;;;-5.66;100.00;103194.69;4985224;28;20052;-66
2024/01/11 01:15:21;;;;;;;;;;;;;;;-5.67;100.00;103195.53;4985617;28;19928;-67
2024/01/11 01:17:47;;;;;;;;;;;;;;;-5.64;100.00;103198.22;4983046;28;20406;-67
2024/01/11 01:20:12;;;;;;;;;;;;;;;-5.69;100.00;103196.34;4985196;28;19925;-67
2024/01/11 01:22:37;;;;;;;;;;;;;;;-5.76;100.00;103200.50;4982431;28;20016;-66
2024/01/11 01:25:03;;;;;;;;;;;;;;;-5.82;100.00;103202.91;5003149;28;20168;-67
2024/01/11 01:27:28;;;;;;;;;;;;;;;-5.89;100.00;103213.25;4999145;28;19951;-67
2024/01/11 01:29:53;;;;;;;;;;;;;;;-5.99;100.00;103208.56;4997968;28;20088;-67
2024/01/11 01:32:18;;;;;;;;;;;;;;;-6.06;100.00;103212.78;4982952;28;19929;-67
2024/01/11 01:34:44;;;;;;;;;;;;;;;-6.08;100.00;103219.69;4982557;28;19925;-66
2024/01/11 01:37:09;;;;;;;;;;;;;;;-6.07;100.00;103224.06;4999213;28;19945;-66
2024/01/11 01:39:37;;;;;;;;;;;;;;;-6.21;100.00;103194.00;5000088;28;19933;-67
2024/01/11 01:42:02;;;;;;;;;;;;;;;-5.97;100.00;103219.97;4964595;28;20664;-66
2024/01/11 01:44:27;;;;;;;;;;;;;;;-5.93;100.00;103218.31;5004532;28;19921;-67
2024/01/11 01:46:53;;;;;;;;;;;;;;;-5.85;100.00;103221.19;4999318;28;19925;-67
2024/01/11 01:49:22;;;;;;;;;;;;;;;-5.83;100.00;103212.53;4999387;28;19965;-66
2024/01/11 01:51:47;;;;;;;;;;;;;;;-5.82;100.00;103216.00;4986099;28;20394;-67
2024/01/11 01:54:12;;;;;;;;;;;;;;;-5.86;100.00;103220.28;4999365;28;19917;-67
2024/01/11 01:56:37;;;;;;;;;;;;;;;-5.87;100.00;103218.50;4982003;28;19953;-66
2024/01/11 01:59:03;;;;;;;;;;;;;;;-5.93;100.00;103223.53;4997524;28;20507;-66
2024/01/11 02:01:28;;;;;;;;;;;;;;;-6.05;100.00;103219.78;4980890;28;19932;-66
2024/01/11 02:03:53;;;;;;;;;;;;;;;-6.06;100.00;103230.19;4983045;28;19921;-67
2024/01/11 02:06:18;;;;;;;;;;;;;;;-6.07;100.00;103229.31;4982518;28;19960;-67
2024/01/11 02:08:43;;;;;;;;;;;;;;;-6.20;100.00;103232.38;4983955;28;19993;-67
2024/01/11 02:11:09;;;;;;;;;;;;;;;-6.27;100.00;103240.91;4999600;28;20028;-67
2024/01/11 02:13:34;;;;;;;;;;;;;;;-6.33;100.00;103237.25;4981342;28;19921;-66
2024/01/11 02:15:59;;;;;;;;;;;;;;;-6.37;100.00;103239.72;4999211;28;19982;-67
2024/01/11 02:18:24;;;;;;;;;;;;;;;-6.39;100.00;103242.28;4997774;28;19922;-67
2024/01/11 02:20:49;;;;;;;;;;;;;;;-6.42;100.00;103241.31;5001363;28;19922;-67
2024/01/11 02:23:17;;;;;;;;;;;;;;;-6.46;100.00;103242.03;4999948;28;20063;-66
2024/01/11 02:25:42;;;;;;;;;;;;;;;-6.46;100.00;103239.44;4983474;28;19922;-67
2024/01/11 02:28:08;;;;;;;;;;;;;;;-6.44;100.00;103238.63;4996983;28;19925;-67
2024/01/11 02:30:33;;;;;;;;;;;;;;;-6.44;100.00;103242.97;4994704;28;19971;-67
2024/01/11 02:32:58;;;;;;;;;;;;;;;-6.46;100.00;103235.06;4983315;28;19968;-66
2024/01/11 02:35:24;;;;;;;;;;;;;;;-6.40;100.00;103237.88;4998498;28;20402;-67
2024/01/11 02:37:49;;;;;;;;;;;;;;;-6.43;100.00;103237.78;5000342;28;20457;-67
2024/01/11 02:40:15;;;;;;;;;;;;;;;-6.43;100.00;103232.56;4998746;28;20368;-67
2024/01/11 02:42:40;;;;;;;;;;;;;;;-6.39;100.00;103233.56;4981275;28;19952;-67
2024/01/11 02:45:05;;;;;;;;;;;;;;;-6.34;100.00;103235.47;4999166;28;19921;-67
2024/01/11 02:47:30;;;;;;;;;;;;;;;-6.29;100.00;103227.75;4999291;28;20277;-66
2024/01/11 02:49:56;;;;;;;;;;;;;;;-6.26;100.00;103237.44;4997983;28;20284;-66
2024/01/11 02:52:22;;;;;;;;;;;;;;;-6.24;100.00;103239.25;4983163;28;20473;-67
2024/01/11 02:54:47;;;;;;;;;;;;;;;-6.27;100.00;103239.16;4982182;28;19917;-67
2024/01/11 02:57:12;;;;;;;;;;;;;;;-6.37;100.00;103239.72;4998531;28;20410;-67
2024/01/11 02:59:39;;;;;;;;;;;;;;;-6.41;100.00;103245.69;4999416;28;20016;-67
2024/01/11 03:02:04;;;;;;;;;;;;;;;-6.45;100.00;103229.00;4996723;28;19925;-66
2024/01/11 03:04:29;;;;;;;;;;;;;;;-6.45;100.00;103236.84;4980294;28;19952;-66
2024/01/11 03:06:55;;;;;;;;;;;;;;;-6.51;100.00;103236.69;4982033;28;20012;-66
2024/01/11 03:09:21;;;;;;;;;;;;;;;-6.42;100.00;103241.31;4980122;28;19922;-67
2024/01/11 03:11:46;;;;;;;;;;;;;;;-6.40;100.00;103240.50;4982073;28;20119;-67
2024/01/11 03:14:11;;;;;;;;;;;;;;;-6.38;100.00;103238.81;4997632;28;19928;-67
2024/01/11 03:16:37;;;;;;;;;;;;;;;-6.37;100.00;103222.28;4985438;28;20176;-67
2024/01/11 03:19:02;;;;;;;;;;;;;;;-6.37;100.00;103222.28;4984134;28;19922;-67
2024/01/11 03:21:27;;;;;;;;;;;;;;;-6.32;100.00;103230.28;4981445;28;19963;-67
2024/01/11 03:23:53;;;;;;;;;;;;;;;-6.32;100.00;103225.03;4983435;28;20750;-67
2024/01/11 03:26:18;;;;;;;;;;;;;;;-6.44;100.00;103225.56;4980854;28;20012;-67
2024/01/11 03:28:43;;;;;;;;;;;;;;;-6.50;100.00;103220.16;4998119;28;19929;-67
2024/01/11 03:31:09;;;;;;;;;;;;;;;-6.51;100.00;103223.59;4980958;28;19925;-67
2024/01/11 03:33:34;;;;;;;;;;;;;;;-6.52;100.00;103232.28;4982011;28;19925;-67
2024/01/11 03:35:59;;;;;;;;;;;;;;;-6.59;100.00;103225.94;4999396;28;19937;-67
2024/01/11 03:38:25;;;;;;;;;;;;;;;-6.69;100.00;103223.91;4997098;28;20546;-67
2024/01/11 03:40:50;;;;;;;;;;;;;;;-6.70;100.00;103229.97;4994716;28;19959;-67
2024/01/11 03:43:17;;;;;;;;;;;;;;;-6.61;100.00;103237.22;4979889;28;20048;-66
2024/01/11 03:45:42;;;;;;;;;;;;;;;-6.62;100.00;103225.88;5001404;28;20026;-66
2024/01/11 03:48:07;;;;;;;;;;;;;;;-6.70;100.00;103227.34;5002891;28;20018;-67
2024/01/11 03:50:32;;;;;;;;;;;;;;;-6.62;100.00;103233.72;5002985;28;19936;-67
2024/01/11 03:52:58;;;;;;;;;;;;;;;-6.64;100.00;103241.50;4988617;28;19971;-66
2024/01/11 03:55:23;;;;;;;;;;;;;;;-6.60;100.00;103245.09;4989866;28;19933;-66
2024/01/11 03:57:48;;;;;;;;;;;;;;;-6.61;100.00;103260.72;5006378;28;19921;-67
2024/01/11 04:00:13;;;;;;;;;;;;;;;-6.60;100.00;103262.50;4985313;28;19918;-66
2024/01/11 04:02:39;;;;;;;;;;;;;;;-6.58;100.00;103255.59;4988582;28;20031;-67
2024/01/11 04:05:04;;;;;;;;;;;;;;;-6.60;100.00;103265.13;4989197;28;20038;-67
2024/01/11 04:07:29;;;;;;;;;;;;;;;-6.53;100.00;103252.28;4986604;28;20328;-66
2024/01/11 04:09:54;;;;;;;;;;;;;;;-6.54;100.00;103253.13;4977234;28;19957;-67
2024/01/11 04:12:20;;;;;;;;;;;;;;;-6.53;100.00;103252.28;4977278;28;20230;-66
2024/01/11 04:14:45;;;;;;;;;;;;;;;-6.51;100.00;103262.81;4982285;28;19921;-66
2024/01/11 04:17:10;;;;;;;;;;;;;;;-6.51;100.00;103268.91;4977100;28;19921;-67
2024/01/11 04:19:36;;;;;;;;;;;;;;;-6.48;100.00;103278.56;4983529;28;20373;-67
2024/01/11 04:22:01;;;;;;;;;;;;;;;-6.46;100.00;103260.34;4977766;28;20763;-67
2024/01/11 04:24:26;;;;;;;;;;;;;;;-6.42;100.00;103242.16;4997188;28;20364;-67
2024/01/11 04:26:51;;;;;;;;;;;;;;;-6.39;100.00;103251.84;4983050;28;20450;-67
2024/01/11 04:29:17;;;;;;;;;;;;;;;-6.38;100.00;103253.63;4979658;28;20135;-67
2024/01/11 04:31:43;;;;;;;;;;;;;;;-6.36;100.00;103247.59;4983331;28;20391;-67
2024/01/11 04:34:09;;;;;;;;;;;;;;;-6.33;100.00;103247.69;4986732;28;19948;-67
2024/01/11 04:36:36;;;;;;;;;;;;;;;-6.42;100.00;103254.38;4982943;28;19925;-66
2024/01/11 04:39:02;;;;;;;;;;;;;;;-6.39;100.00;103262.31;4979978;28;20275;-67
2024/01/11 04:41:27;;;;;;;;;;;;;;;-6.38;100.00;103267.59;4987753;28;19928;-67
2024/01/11 04:43:52;;;;;;;;;;;;;;;-6.46;100.00;103265.56;4989893;28;19921;-67
2024/01/11 04:46:18;;;;;;;;;;;;;;;-6.42;100.00;103270.06;4989498;28;19922;-67
2024/01/11 04:48:43;;;;;;;;;;;;;;;-6.37;100.00;103277.19;4988683;28;19926;-67
2024/01/11 04:51:09;;;;;;;;;;;;;;;-6.37;100.00;103295.50;4982776;28;20620;-67
2024/01/11 04:53:40;;;;;;;;;;;;;;;-6.38;100.00;103293.72;4980531;28;19918;-67
2024/01/11 04:56:06;;;;;;;;;;;;;;;-6.41;100.00;103296.25;4967495;28;20008;-66
2024/01/11 04:58:31;;;;;;;;;;;;;;;-6.43;100.00;103289.19;4965868;28;20021;-66
2024/01/11 05:00:56;;;;;;;;;;;;;;;-6.48;100.00;103283.78;4966264;28;20621;-67
2024/01/11 05:03:22;;;;;;;;;;;;;;;-6.50;100.00;103298.56;4968659;28;19922;-67
2024/01/11 05:05:47;;;;;;;;;;;;;;;-6.57;100.00;103307.03;4970680;28;19924;-67
2024/01/11 05:08:12;;;;;;;;;;;;;;;-6.61;100.00;103302.53;4956350;28;19914;-67
2024/01/11 05:10:37;;;;;;;;;;;;;;;-6.61;100.00;103302.53;4966198;28;19961;-67
2024/01/11 05:13:03;;;;;;;;;;;;;;;-6.63;100.00;103299.91;4963878;28;20380;-67
2024/01/11 05:15:28;;;;;;;;;;;;;;;-6.64;100.00;103304.22;4967227;28;20603;-67
2024/01/11 05:17:54;;;;;;;;;;;;;;;-6.64;100.00;103291.16;4962821;28;19923;-67
2024/01/11 05:20:20;;;;;;;;;;;;;;;-6.68;100.00;103296.22;4960027;28;19926;-67
2024/01/11 05:22:45;;;;;;;;;;;;;;;-6.64;100.00;103303.34;4982172;28;19945;-67
2024/01/11 05:25:10;;;;;;;;;;;;;;;-6.63;100.00;103298.16;4959142;28;19980;-67
2024/01/11 05:27:35;;;;;;;;;;;;;;;-6.62;100.00;103286.00;4962837;28;20021;-67
2024/01/11 05:30:00;;;;;;;;;;;;;;;-6.58;100.00;103285.22;4961710;28;19922;-67
2024/01/11 05:32:26;;;;;;;;;;;;;;;-6.59;100.00;103285.19;4958995;28;19929;-67
2024/01/11 05:34:51;;;;;;;;;;;;;;;-6.63;100.00;103292.94;4953152;28;19933;-67
2024/01/11 05:37:16;;;;;;;;;;;;;;;-6.63;100.00;103292.06;4954830;28;19926;-67
2024/01/11 05:39:41;;;;;;;;;;;;;;;-6.68;100.00;103289.25;4963037;28;19929;-67
2024/01/11 05:42:07;;;;;;;;;;;;;;;-6.67;100.00;103303.25;4956392;28;19918;-67
2024/01/11 05:44:32;;;;;;;;;;;;;;;-6.74;100.00;103298.63;4957822;28;19962;-67
2024/01/11 05:46:57;;;;;;;;;;;;;;;-6.78;100.00;103303.75;4959400;28;19926;-67
2024/01/11 05:49:22;;;;;;;;;;;;;;;-6.79;100.00;103299.34;4960452;28;19961;-67
2024/01/11 05:51:48;;;;;;;;;;;;;;;-6.79;100.00;103306.31;4959599;28;20016;-67
2024/01/11 05:54:13;;;;;;;;;;;;;;;-6.78;100.00;103319.41;4961497;28;19924;-67
2024/01/11 05:56:38;;;;;;;;;;;;;;;-6.80;100.00;103310.66;4956355;28;19922;-67
2024/01/11 05:59:04;;;;;;;;;;;;;;;-6.83;100.00;103312.28;4959590;28;19925;-67
2024/01/11 06:01:29;;;;;;;;;;;;;;;-6.79;100.00;103319.38;4956219;28;19929;-67
2024/01/11 06:03:55;;;;;;;;;;;;;;;-6.78;100.00;103310.72;4954431;28;19972;-68
2024/01/11 06:06:20;;;;;;;;;;;;;;;-6.82;100.00;103314.06;4954838;28;19922;-67
2024/01/11 06:08:45;;;;;;;;;;;;;;;-6.85;100.00;103319.16;4957303;28;20021;-68
2024/01/11 06:11:10;;;;;;;;;;;;;;;-6.91;100.00;103314.63;4953506;28;19950;-67
2024/01/11 06:13:36;;;;;;;;;;;;;;;-6.98;100.00;103307.41;4963122;28;20022;-67
2024/01/11 06:16:01;;;;;;;;;;;;;;;-7.01;100.00;103296.84;4957322;28;19929;-67
2024/01/11 06:18:26;;;;;;;;;;;;;;;-7.06;100.00;103299.31;4967699;28;19957;-67
2024/01/11 06:20:51;;;;;;;;;;;;;;;-7.01;100.00;103320.34;4940833;28;20041;-67
2024/01/11 06:23:16;;;;;;;;;;;;;;;-7.06;100.00;103325.41;4950893;28;19921;-67
2024/01/11 06:25:42;;;;;;;;;;;;;;;-7.20;100.00;103304.03;4948224;28;19922;-67
2024/01/11 06:28:09;;;;;;;;;;;;;;;-7.07;100.00;103336.69;4961452;28;19925;-67
2024/01/11 06:30:34;;;;;;;;;;;;;;;-7.05;100.00;103340.25;4953237;28;19929;-67
2024/01/11 06:33:00;;;;;;;;;;;;;;;-7.08;100.00;103351.47;4948497;28;19926;-67
2024/01/11 06:35:25;;;;;;;;;;;;;;;-7.12;100.00;103346.97;4948014;28;19958;-67
2024/01/11 06:37:50;;;;;;;;;;;;;;;-7.20;100.00;103337.97;4960612;28;20365;-67
2024/01/11 06:40:15;;;;;;;;;;;;;;;-7.23;100.00;103346.56;4948602;28;20281;-68
2024/01/11 06:42:40;;;;;;;;;;;;;;;-7.28;100.00;103339.41;4961525;28;20042;-67
2024/01/11 06:45:06;;;;;;;;;;;;;;;-7.33;100.00;103347.09;4948909;28;19989;-67
2024/01/11 06:47:31;;;;;;;;;;;;;;;-7.42;100.00;103358.09;4948474;28;20420;-67
2024/01/11 06:49:56;;;;;;;;;;;;;;;-7.47;100.00;103367.44;4955677;28;19922;-67
2024/01/11 06:52:22;;;;;;;;;;;;;;;-7.55;100.00;103390.63;4954355;28;20297;-67
2024/01/11 06:54:47;;;;;;;;;;;;;;;-7.66;100.00;103397.16;4953181;28;20350;-68
2024/01/11 06:57:12;;;;;;;;;;;;;;;-7.66;100.00;103385.81;4956806;28;20332;-67
2024/01/11 06:59:37;;;;;;;;;;;;;;;-7.71;100.00;103380.44;4942171;28;20442;-67
2024/01/11 07:02:03;;;;;;;;;;;;;;;-7.69;100.00;103387.50;4948043;28;22633;-67
2024/01/11 07:04:28;;;;;;;;;;;;;;;-7.64;100.00;103382.47;4958459;28;19985;-68
2024/01/11 07:06:53;;;;;;;;;;;;;;;-7.66;100.00;103381.50;4956869;28;19922;-67
2024/01/11 07:09:18;;;;;;;;;;;;;;;-7.63;100.00;103376.41;4950640;28;21433;-68
2024/01/11 07:11:44;;;;;;;;;;;;;;;-7.60;100.00;103378.22;4950760;28;19933;-67
2024/01/11 07:14:09;;;;;;;;;;;;;;;-7.62;100.00;103380.78;4953656;28;19918;-67
2024/01/11 07:16:35;;;;;;;;;;;;;;;-7.68;100.00;103385.78;4955704;28;19918;-67
2024/01/11 07:19:00;;;;;;;;;;;;;;;-7.77;100.00;103382.78;4967731;28;19939;-67
2024/01/11 07:21:29;;;;;;;;;;;;;;;-7.80;100.00;103378.34;4959147;28;19930;-67
2024/01/11 07:23:55;;;;;;;;;;;;;;;-7.73;100.00;103389.91;4955050;28;19976;-67
2024/01/11 07:26:20;;;;;;;;;;;;;;;-7.71;100.00;103389.16;4954336;28;19926;-68
2024/01/11 07:28:45;;;;;;;;;;;;;;;-7.81;100.00;103399.19;4957122;28;19922;-67
2024/01/11 07:31:10;;;;;;;;;;;;;;;-7.88;100.00;103401.53;4950007;28;19952;-67
2024/01/11 07:33:37;;;;;;;;;;;;;;;-7.93;100.00;103403.06;4957821;28;20609;-67
2024/01/11 07:36:03;;;;;;;;;;;;;;;-7.97;100.00;103403.75;4958013;28;20303;-67
2024/01/11 07:38:28;;;;;;;;;;;;;;;-7.94;100.00;103400.41;4957815;28;20357;-67
2024/01/11 07:40:53;;;;;;;;;;;;;;;-7.94;100.00;103400.41;4953628;28;19922;-67
2024/01/11 07:43:18;;;;;;;;;;;;;;;-7.93;100.00;103396.94;4956106;28;19961;-68
2024/01/11 07:45:43;;;;;;;;;;;;;;;-7.87;100.00;103386.75;4946132;28;20046;-68
2024/01/11 07:48:09;;;;;;;;;;;;;;;-7.86;100.00;103380.72;4958289;28;19968;-68
2024/01/11 07:50:35;;;;;;;;;;;;;;;-7.77;100.00;103377.56;4949728;28;19918;-68
2024/01/11 07:53:01;;;;;;;;;;;;;;;-7.72;100.00;103371.72;4956637;28;20350;-68
2024/01/11 07:55:26;;;;;;;;;;;;;;;-7.57;100.00;103375.75;4949752;28;19922;-67
2024/01/11 07:57:51;;;;;;;;;;;;;;;-7.44;100.00;103374.50;4963095;28;19922;-68
2024/01/11 08:00:16;;;;;;;;;;;;;;;-7.33;100.00;103369.69;4966523;28;19940;-68
2024/01/11 08:02:41;;;;;;;;;;;;;;;-7.18;100.00;103372.88;4956763;28;19941;-68
2024/01/11 08:05:07;;;;;;;;;;;;;;;-7.00;100.00;103366.53;4954633;28;19930;-68
2024/01/11 08:07:32;;;;;;;;;;;;;;;-6.82;100.00;103380.25;4956174;28;19969;-68
2024/01/11 08:09:57;;;;;;;;;;;;;;;-6.59;100.00;103374.06;4952827;28;19985;-67
2024/01/11 08:12:23;;;;;;;;;;;;;;;-6.49;100.00;103373.53;4952835;28;20020;-68
2024/01/11 08:14:48;;;;;;;;;;;;;;;-6.42;100.00;103366.78;4950312;28;19930;-67
2024/01/11 08:17:14;;;;;;;;;;;;;;;-6.24;100.00;103372.63;4956055;28;19972;-68
2024/01/11 08:19:39;;;;;;;;;;;;;;;-5.97;100.00;103373.44;4951593;28;19922;-68
2024/01/11 08:22:05;;;;;;;;;;;;;;;-5.84;100.00;103367.75;4965319;28;19924;-68
2024/01/11 08:24:30;;;;;;;;;;;;;;;-5.72;100.00;103352.44;4964375;28;19928;-67
2024/01/11 08:26:55;;;;;;;;;;;;;;;-5.54;100.00;103353.84;4947587;28;19922;-68
2024/01/11 08:29:22;;;;;;;;;;;;;;;-5.30;100.00;103355.38;4964439;28;20368;-68
2024/01/11 08:31:47;;;;;;;;;;;;;;;-5.10;100.00;103365.53;4968240;28;19926;-68
2024/01/11 08:34:12;;;;;;;;;;;;;;;-4.91;100.00;103370.47;4952539;28;19969;-68
2024/01/11 08:36:38;;;;;;;;;;;;;;;-4.67;100.00;103380.72;4972074;28;19927;-68
2024/01/11 08:39:07;;;;;;;;;;;;;;;-4.37;100.00;103377.13;4939768;28;20396;-68
2024/01/11 08:41:32;;;;;;;;;;;;;;;-4.04;100.00;103370.03;4961690;28;19993;-68
2024/01/11 08:43:58;;;;;;;;;;;;;;;-4.00;100.00;103373.66;4952401;28;19922;-68
2024/01/11 08:46:26;;;;;;;;;;;;;;;-3.94;100.00;103365.88;4955574;28;19977;-68
2024/01/11 08:48:52;;;;;;;;;;;;;;;-3.51;100.00;103359.00;4957290;28;20381;-68
2024/01/11 08:51:17;;;;;;;;;;;;;;;-3.29;100.00;103361.19;4970751;28;20060;-68
2024/01/11 08:53:42;;;;;;;;;;;;;;;-3.14;100.00;103360.59;4950200;28;20448;-68
2024/01/11 08:56:08;;;;;;;;;;;;;;;-3.06;100.00;103373.06;4953865;28;19970;-69
2024/01/11 08:58:33;;;;;;;;;;;;;;;-2.82;100.00;103371.78;4948667;28;20134;-68
2024/01/11 09:00:58;;;;;;;;;;;;;;;-2.77;100.00;103383.25;4953985;28;19922;-69
2024/01/11 09:03:24;;;;;;;;;;;;;;;-2.73;100.00;103389.47;4955043;28;19946;-68
2024/01/11 09:05:49;;;;;;;;;;;;;;;-2.58;100.00;103388.88;4955100;28;20089;-69
2024/01/11 09:08:14;;;;;;;;;;;;;;;-2.42;100.00;103392.66;4955070;28;19926;-69
2024/01/11 09:10:41;;;;;;;;;;;;;;;-2.43;100.00;103401.41;4958701;28;19918;-69
2024/01/11 09:13:06;;;;;;;;;;;;;;;-2.44;100.00;103399.63;4953452;28;20313;-69
2024/01/11 09:15:31;;;;;;;;;;;;;;;-2.47;100.00;103400.44;4968799;28;19922;-69
2024/01/11 09:17:58;;;;;;;;;;;;;;;-2.33;100.00;103405.09;4957535;28;20013;-68
2024/01/11 09:20:23;;;;;;;;;;;;;;;-2.26;100.00;103412.25;4961997;28;19926;-68
2024/01/11 09:22:48;;;;;;;;;;;;;;;-2.43;100.00;103412.81;4951868;28;19925;-68
2024/01/11 09:25:14;;;;;;;;;;;;;;;-2.36;100.00;103418.19;4958294;28;20258;-69
2024/01/11 09:27:39;;;;;;;;;;;;;;;-2.19;100.00;103415.84;4958026;28;20424;-69
2024/01/11 09:30:05;;;;;;;;;;;;;;;-2.28;100.00;103424.50;4968942;28;19914;-69
2024/01/11 09:32:31;;;;;;;;;;;;;;;-2.06;100.00;103428.34;4955704;28;20239;-69
2024/01/11 09:34:56;;;;;;;;;;;;;;;-2.16;100.00;103431.72;4954352;28;19973;-69
2024/01/11 09:37:21;;;;;;;;;;;;;;;-1.99;100.00;103427.59;4960912;28;20277;-69
2024/01/11 09:39:46;;;;;;;;;;;;;;;-1.78;100.00;103426.16;4954692;28;20285;-69
2024/01/11 09:42:12;;;;;;;;;;;;;;;-1.31;100.00;103424.19;4973519;28;20121;-69
2024/01/11 09:44:40;;;;;;;;;;;;;;;-0.83;100.00;103406.34;4962685;28;20488;-69
2024/01/11 09:47:06;;;;;;;;;;;;;;;-0.20;100.00;103417.53;4960452;28;20456;-69
2024/01/11 09:49:31;;;;;;;;;;;;;;;0.32;100.00;103418.81;4977167;28;19930;-69
2024/01/11 09:51:56;;;;;;;;;;;;;;;0.81;100.00;103407.63;4957174;28;20013;-69
2024/01/11 09:54:22;;;;;;;;;;;;;;;1.11;100.00;103410.38;4954964;28;20371;-69
2024/01/11 09:56:49;;;;;;;;;;;;;;;1.36;100.00;103411.34;4957217;28;19918;-69
2024/01/11 09:59:14;;;;;;;;;;;;;;;1.39;100.00;103421.94;4954486;28;19929;-69
2024/01/11 10:01:39;;;;;;;;;;;;;;;1.72;100.00;103422.88;4974719;28;19926;-69
2024/01/11 10:04:04;;;;;;;;;;;;;;;2.03;100.00;103429.97;4958573;28;19925;-69
2024/01/11 10:06:31;;;;;;;;;;;;;;;2.34;98.55;103430.81;4965813;28;19929;-69
2024/01/11 10:08:56;;;;;;;;;;;;;;;2.73;96.93;103435.16;4969834;28;19922;-69
2024/01/11 10:11:22;;;;;;;;;;;;;;;2.65;94.10;103435.19;4948956;28;19922;-69
2024/01/11 10:13:47;;;;;;;;;;;;;;;3.09;92.39;103433.22;4950787;28;20021;-69
2024/01/11 10:16:15;;;;;;;;;;;;;;;3.19;89.85;103440.28;4967365;28;20108;-69
2024/01/11 10:18:41;;;;;;;;;;;;;;;3.30;89.30;103435.81;4956855;28;20316;-69
2024/01/11 10:21:06;;;;;;;;;;;;;;;3.48;88.41;103435.69;4957423;28;19918;-70
2024/01/11 10:23:34;;;;;;;;;;;;;;;3.39;86.04;103437.50;4944638;28;20367;-69
2024/01/11 10:26:00;;;;;;;;;;;;;;;3.29;85.12;103442.00;4958103;28;19940;-69
2024/01/11 10:28:26;;;;;;;;;;;;;;;3.61;84.39;103442.69;4956695;28;20395;-69
2024/01/11 10:30:55;;;;;;;;;;;;;;;3.87;82.19;103434.50;4966253;28;19926;-70
2024/01/11 10:33:23;;;;;;;;;;;;;;;4.00;78.98;103434.44;4950774;28;20306;-69
2024/01/11 10:35:49;;;;;;;;;;;;;;;4.47;78.94;103430.44;4963967;28;19922;-69
2024/01/11 10:38:15;;;;;;;;;;;;;;;4.69;76.04;103427.53;4977709;28;19925;-69
2024/01/11 10:40:40;;;;;;;;;;;;;;;5.01;73.57;103420.94;4975472;28;19922;-69
2024/01/11 10:43:05;;;;;;;;;;;;;;;5.06;72.03;103423.53;4962491;28;20008;-69
2024/01/11 10:45:31;;;;;;;;;;;;;;;5.34;71.57;103420.50;4951925;28;20421;-69
2024/01/11 10:47:57;;;;;;;;;;;;;;;5.54;68.99;103417.53;4978502;28;20036;-70
2024/01/11 10:50:22;;;;;;;;;;;;;;;6.04;68.96;103411.44;4953358;28;20051;-69
2024/01/11 10:53:11;;;;;;;;;;;;;;;5.81;65.39;103410.91;4959190;28;19941;-70
2024/01/11 10:55:36;;;;;;;;;;;;;;;5.75;64.09;103421.66;4958675;28;19926;-69
2024/01/11 10:58:02;;;;;;;;;;;;;;;6.31;63.48;103431.44;4975431;28;19918;-69
2024/01/11 11:00:27;;;;;;;;;;;;;;;6.14;63.18;103437.06;4971025;28;20025;-70
2024/01/11 11:02:52;;;;;;;;;;;;;;;6.32;63.54;103426.94;4975023;28;19961;-69
2024/01/11 11:05:18;;;;;;;;;;;;;;;6.71;62.93;103437.78;4968114;28;19988;-70
2024/01/11 11:07:43;;;;;;;;;;;;;;;6.65;60.96;103433.44;4960270;28;20002;-70
2024/01/11 11:10:08;;;;;;;;;;;;;;;6.73;60.71;103420.81;4959967;28;19973;-71
2024/01/11 11:12:35;;;;;;;;;;;;;;;7.45;60.95;103424.63;4972425;28;19969;-70
2024/01/11 11:15:01;;;;;;;;;;;;;;;7.76;57.64;103415.88;4956807;28;20324;-70
2024/01/11 11:17:27;;;;;;;;;;;;;;;7.90;56.88;103416.44;4966683;28;19925;-70
2024/01/11 11:19:53;;;;;;;;;;;;;;;8.36;57.13;103414.31;4956730;28;19924;-70
2024/01/11 11:22:19;;;;;;;;;;;;;;;8.78;54.05;103415.88;4969326;28;19929;-70
2024/01/11 11:24:44;;;;;;;;;;;;;;;8.85;53.45;103422.81;4953113;28;19918;-70
2024/01/11 11:27:12;;;;;;;;;;;;;;;8.73;53.87;103422.28;4947324;28;20302;-70
2024/01/11 11:29:38;;;;;;;;;;;;;;;9.14;53.09;103423.75;4955998;28;20288;-70
2024/01/11 11:32:04;;;;;;;;;;;;;;;8.84;51.42;103438.94;4969435;28;20374;-70
2024/01/11 11:34:44;;;;;;;;;;;;;;;8.75;52.06;103449.91;4953504;28;19922;-70
2024/01/11 11:37:09;;;;;;;;;;;;;;;9.12;51.13;103455.06;4970898;28;19918;-70
2024/01/11 11:39:34;;;;;;;;;;;;;;;9.30;51.60;103460.78;4955099;28;20154;-70
2024/01/11 11:42:01;;;;;;;;;;;;;;;9.15;50.59;103456.78;4952892;28;19957;-70
2024/01/11 11:44:26;;;;;;;;;;;;;;;9.00;52.29;103455.47;4972788;28;19928;-72
2024/01/11 11:46:51;;;;;;;;;;;;;;;8.94;50.87;103456.50;4957165;28;19922;-70
2024/01/11 11:49:16;;;;;;;;;;;;;;;9.05;51.17;103442.78;4956176;28;19922;-70
2024/01/11 11:51:43;;;;;;;;;;;;;;;9.02;50.42;103431.28;4972964;28;19930;-70
2024/01/11 11:54:09;;;;;;;;;;;;;;;9.37;50.29;103437.38;4957668;28;19957;-70
2024/01/11 11:56:34;;;;;;;;;;;;;;;9.55;49.73;103435.88;4948509;28;19923;-70
2024/01/11 11:59:00;;;;;;;;;;;;;;;9.88;48.96;103425.00;4957056;28;19918;-70
2024/01/11 12:01:25;;;;;;;;;;;;;;;9.77;49.93;103420.00;4960501;28;20341;-70
2024/01/11 12:03:50;;;;;;;;;;;;;;;10.27;50.02;103421.88;4957622;28;20344;-70
2024/01/11 12:06:19;;;;;;;;;;;;;;;9.67;48.51;103413.16;4956775;28;19925;-69
2024/01/11 12:08:45;;;;;;;;;;;;;;;9.82;49.39;103409.09;4958797;28;19918;-70
2024/01/11 12:11:12;;;;;;;;;;;;;;;10.39;49.74;103408.97;4953981;28;19981;-69
2024/01/11 12:13:38;;;;;;;;;;;;;;;10.52;48.50;103410.28;4954738;28;19918;-70
2024/01/11 12:16:03;;;;;;;;;;;;;;;10.83;49.72;103419.00;4971959;28;19926;-69
2024/01/11 12:18:28;;;;;;;;;;;;;;;10.56;49.70;103419.09;4954875;28;19976;-69
2024/01/11 12:20:53;;;;;;;;;;;;;;;10.47;49.81;103407.75;4945377;28;19944;-69